Terminal Aerodrome Forecast
Issued by NWS

Home | Current Version | Previous Version | Text Only | Print | Product List | Glossary On
Versions: 1 2 3 4 5 6 7 8 9 10 11 12
000
FTUS46 KMFR 270541
TAFOTH
TAF
KOTH 270541Z 2706/2806 14004KT P6SM BKN045 BKN200
     FM271700 17007KT P6SM VCSH OVC035
     FM272100 22008KT P6SM -RA BKN015 OVC030
     FM272300 27010KT 4SM -RA BR BKN015 BKN030 OVC060
     FM280500 29008KT P6SM -SHRA OVC015=

USA.gov is the U.S. government's official web portal to all federal, state and local government web resources and services.